Time;durP1;ratioP1;P1;durP2;ratioP2;P2;SDS_P1;SDS_P2;PMS_P1;PMS_P2;Temp;Humidity;BMP_temperature;BMP_pressure;BME280_temperature;BME280_humidity;BME280_pressure;Samples;Min_cycle;Max_cycle;Signal;HPM_P1;HPM_P2
2023/05/28 00:00:58;;;;;;;;;;;;;;;27.66;30.39;101405.03;4146044;28;20012;-67
2023/05/28 00:02:59;;;;;;;;;;;;;;;27.66;30.68;101405.03;4144931;28;19958;-68
2023/05/28 00:05:01;;;;;;;;;;;;;;;27.67;30.41;101400.47;4146230;28;20370;-69
2023/05/28 00:07:04;;;;;;;;;;;;;;;27.67;30.63;101400.47;4145138;28;19948;-67
2023/05/28 00:09:05;;;;;;;;;;;;;;;27.66;30.29;101396.09;4146098;28;20276;-68
2023/05/28 00:11:07;;;;;;;;;;;;;;;27.66;30.40;101399.63;4145820;28;19948;-67
2023/05/28 00:13:09;;;;;;;;;;;;;;;27.67;30.47;101398.63;4144433;28;19929;-66
2023/05/28 00:15:10;;;;;;;;;;;;;;;27.69;30.42;101401.19;4145651;28;19986;-67
2023/05/28 00:17:12;;;;;;;;;;;;;;;27.68;30.59;101400.34;4144761;28;20016;-67
2023/05/28 00:19:14;;;;;;;;;;;;;;;27.70;30.61;101405.59;4145784;28;19925;-67
2023/05/28 00:21:15;;;;;;;;;;;;;;;27.70;30.68;101392.91;4145825;28;19937;-67
2023/05/28 00:23:17;;;;;;;;;;;;;;;27.69;30.46;101383.13;4145721;28;19926;-68
2023/05/28 00:25:19;;;;;;;;;;;;;;;27.69;30.46;101391.25;4145820;28;19957;-68
2023/05/28 00:27:21;;;;;;;;;;;;;;;27.70;30.68;101387.50;4144118;28;19932;-68
2023/05/28 00:29:24;;;;;;;;;;;;;;;27.70;30.62;101397.50;4145771;28;19929;-68
2023/05/28 00:31:25;;;;;;;;;;;;;;;27.69;30.80;101393.06;4145607;28;20002;-68
2023/05/28 00:33:27;;;;;;;;;;;;;;;27.68;30.44;101385.97;4146669;28;19995;-68
2023/05/28 00:35:28;;;;;;;;;;;;;;;27.67;30.44;101381.56;4162089;28;19925;-68
2023/05/28 00:37:30;;;;;;;;;;;;;;;27.66;30.51;101385.28;4159822;28;19977;-68
2023/05/28 00:39:32;;;;;;;;;;;;;;;27.67;30.39;101384.25;4146638;28;19955;-68
2023/05/28 00:41:36;;;;;;;;;;;;;;;27.67;30.53;101382.44;4145305;28;20344;-67
2023/05/28 00:43:38;;;;;;;;;;;;;;;27.69;30.82;101393.94;4145393;28;19949;-68
2023/05/28 00:45:39;;;;;;;;;;;;;;;27.69;30.56;101390.38;4145448;28;19929;-68
2023/05/28 00:47:41;;;;;;;;;;;;;;;27.70;30.47;101392.09;4144594;28;20303;-68
2023/05/28 00:49:43;;;;;;;;;;;;;;;27.70;30.54;101390.22;4145445;28;19929;-68
2023/05/28 00:51:45;;;;;;;;;;;;;;;27.71;30.81;101394.63;4145544;28;19961;-68
2023/05/28 00:53:46;;;;;;;;;;;;;;;27.72;30.50;101395.50;4145569;28;19925;-68
2023/05/28 00:55:48;;;;;;;;;;;;;;;27.71;30.42;101389.22;4145114;28;19926;-68
2023/05/28 00:57:53;;;;;;;;;;;;;;;27.71;30.70;101388.38;4144707;28;20351;-68
2023/05/28 01:00:01;;;;;;;;;;;;;;;27.71;30.78;101382.97;4145417;28;19933;-68
2023/05/28 01:02:03;;;;;;;;;;;;;;;27.70;30.62;101389.38;4145623;28;20444;-67
2023/05/28 01:04:05;;;;;;;;;;;;;;;27.69;30.47;101384.97;4145345;28;19951;-68
2023/05/28 01:06:11;;;;;;;;;;;;;;;27.69;30.79;101383.13;4144457;28;19979;-68
2023/05/28 01:08:12;;;;;;;;;;;;;;;27.68;30.87;101376.03;4145142;28;19964;-68
2023/05/28 01:10:14;;;;;;;;;;;;;;;27.70;30.49;101381.28;4145552;28;20765;-67
2023/05/28 01:12:16;;;;;;;;;;;;;;;27.70;30.78;101384.81;4144952;28;20040;-67
2023/05/28 01:14:19;;;;;;;;;;;;;;;27.71;30.86;101386.50;4145146;28;19979;-67
2023/05/28 01:16:21;;;;;;;;;;;;;;;27.72;30.62;101395.50;4144386;28;19933;-68
2023/05/28 01:18:24;;;;;;;;;;;;;;;27.71;30.91;101391.91;4144879;28;19929;-67
2023/05/28 01:20:29;;;;;;;;;;;;;;;27.72;30.81;101390.94;4145069;28;20033;-68
2023/05/28 01:22:37;;;;;;;;;;;;;;;27.74;30.61;101396.16;4145186;28;19925;-67
2023/05/28 01:24:39;;;;;;;;;;;;;;;27.73;30.57;101389.94;4145101;28;19945;-67
2023/05/28 01:26:42;;;;;;;;;;;;;;;27.74;30.74;101393.47;4143691;28;19984;-68
2023/05/28 01:28:48;;;;;;;;;;;;;;;27.74;30.55;101390.75;4176309;28;19967;-68
2023/05/28 01:30:49;;;;;;;;;;;;;;;27.72;30.52;101393.63;4144892;28;19929;-68
2023/05/28 01:32:51;;;;;;;;;;;;;;;27.73;30.86;101389.09;4145165;28;19933;-68
2023/05/28 01:34:53;;;;;;;;;;;;;;;27.72;30.68;101393.63;4157806;28;20048;-68
2023/05/28 01:36:57;;;;;;;;;;;;;;;27.73;30.58;101394.50;4160117;28;19925;-67
2023/05/28 01:39:02;;;;;;;;;;;;;;;27.74;30.58;101396.16;4150529;28;20359;-66
2023/05/28 01:41:04;;;;;;;;;;;;;;;27.74;30.51;101388.94;4144721;28;19929;-66
2023/05/28 01:43:07;;;;;;;;;;;;;;;27.74;30.80;101391.63;4144883;28;19976;-66
2023/05/28 01:45:10;;;;;;;;;;;;;;;27.76;30.88;101396.88;4144780;28;19976;-67
2023/05/28 01:47:12;;;;;;;;;;;;;;;27.77;30.85;101397.75;4144099;28;19932;-66
2023/05/28 01:49:14;;;;;;;;;;;;;;;27.78;30.70;101394.03;4144827;28;20350;-67
2023/05/28 01:51:22;;;;;;;;;;;;;;;27.78;30.60;101389.47;4144975;28;19933;-67
2023/05/28 01:53:24;;;;;;;;;;;;;;;27.78;30.84;101394.88;4147592;28;20347;-67
2023/05/28 01:55:25;;;;;;;;;;;;;;;27.78;30.67;101397.59;4147418;28;20365;-67
2023/05/28 01:57:27;;;;;;;;;;;;;;;27.78;30.81;101391.31;4145335;28;19966;-66
2023/05/28 01:59:29;;;;;;;;;;;;;;;27.79;30.88;101393.03;4147657;28;19926;-66
2023/05/28 02:01:32;;;;;;;;;;;;;;;27.78;30.82;101386.78;4147676;28;19929;-67
2023/05/28 02:03:34;;;;;;;;;;;;;;;27.78;30.70;101377.81;4147685;28;19970;-66
2023/05/28 02:05:36;;;;;;;;;;;;;;;27.78;30.91;101383.22;4179129;28;19929;-66
2023/05/28 02:07:38;;;;;;;;;;;;;;;27.78;30.84;101392.19;4146556;28;19925;-67
2023/05/28 02:09:40;;;;;;;;;;;;;;;27.77;30.70;101387.78;4145979;28;20325;-67
2023/05/28 02:11:41;;;;;;;;;;;;;;;27.77;30.87;101395.88;4147341;28;19926;-66
2023/05/28 02:13:43;;;;;;;;;;;;;;;27.80;30.83;101386.63;4147172;28;19933;-67
2023/05/28 02:15:45;;;;;;;;;;;;;;;27.80;30.72;101389.31;4147336;28;19969;-67
2023/05/28 02:17:47;;;;;;;;;;;;;;;27.71;30.81;101378.41;4146273;28;19929;-67
2023/05/28 02:19:51;;;;;;;;;;;;;;;27.81;30.54;101399.97;4147104;28;19964;-66
2023/05/28 02:21:53;;;;;;;;;;;;;;;27.81;30.58;101396.44;4147587;28;19925;-67
2023/05/28 02:23:55;;;;;;;;;;;;;;;27.82;30.64;101401.69;4146963;28;19925;-68
2023/05/28 02:25:56;;;;;;;;;;;;;;;27.82;30.60;101396.28;4146956;28;19934;-66
2023/05/28 02:27:58;;;;;;;;;;;;;;;27.82;30.72;101396.28;4145968;28;19926;-65
2023/05/28 02:29:59;;;;;;;;;;;;;;;27.83;30.60;101397.13;4147061;28;19932;-66
2023/05/28 02:32:02;;;;;;;;;;;;;;;27.82;30.57;101403.53;4146979;28;20297;-66
2023/05/28 02:34:04;;;;;;;;;;;;;;;27.81;30.81;101399.13;4153179;28;19929;-66
2023/05/28 02:36:11;;;;;;;;;;;;;;;27.81;30.59;101402.69;4163338;28;20449;-66
2023/05/28 02:38:13;;;;;;;;;;;;;;;27.80;30.77;101400.97;4158198;28;19937;-66
2023/05/28 02:40:14;;;;;;;;;;;;;;;27.81;30.49;101399.97;4147000;28;19935;-68
2023/05/28 02:42:16;;;;;;;;;;;;;;;27.82;30.57;101398.97;4147009;28;19982;-68
2023/05/28 02:44:17;;;;;;;;;;;;;;;27.83;30.81;101395.28;4146872;28;19933;-67
2023/05/28 02:46:19;;;;;;;;;;;;;;;27.84;30.77;101390.69;4146180;28;20371;-68
2023/05/28 02:48:21;;;;;;;;;;;;;;;27.85;30.45;101405.94;4146711;28;20447;-68
2023/05/28 02:50:22;;;;;;;;;;;;;;;27.85;30.60;101395.97;4147129;28;19961;-67
2023/05/28 02:52:24;;;;;;;;;;;;;;;27.86;30.41;101399.53;4145603;28;19934;-68
2023/05/28 02:54:25;;;;;;;;;;;;;;;27.86;30.79;101394.13;4146813;28;19926;-68
2023/05/28 02:56:27;;;;;;;;;;;;;;;27.86;30.81;101397.69;4144883;28;20422;-67
2023/05/28 02:58:30;;;;;;;;;;;;;;;27.86;30.57;101396.81;4146696;28;19944;-66
2023/05/28 03:00:31;;;;;;;;;;;;;;;27.85;30.71;101393.28;4146783;28;19926;-67
2023/05/28 03:02:33;;;;;;;;;;;;;;;27.84;30.56;101393.41;4147169;28;20063;-66
2023/05/28 03:04:37;;;;;;;;;;;;;;;27.83;30.75;101392.56;4145546;28;20313;-67
2023/05/28 03:06:38;;;;;;;;;;;;;;;27.83;30.42;101384.47;4145482;28;20009;-66
2023/05/28 03:08:40;;;;;;;;;;;;;;;27.83;30.65;101383.63;4146629;28;19926;-66
2023/05/28 03:10:41;;;;;;;;;;;;;;;27.85;30.93;101387.00;4146972;28;19953;-67
2023/05/28 03:12:43;;;;;;;;;;;;;;;27.85;30.79;101393.28;4146656;28;19929;-67
2023/05/28 03:14:44;;;;;;;;;;;;;;;27.86;30.88;101397.69;4146824;28;19929;-66
2023/05/28 03:16:46;;;;;;;;;;;;;;;27.86;30.64;101400.38;4145776;28;19925;-67
2023/05/28 03:18:48;;;;;;;;;;;;;;;27.87;30.76;101387.72;4146584;28;19932;-67
2023/05/28 03:20:50;;;;;;;;;;;;;;;27.87;30.68;101385.00;4146510;28;20020;-67
2023/05/28 03:22:56;;;;;;;;;;;;;;;27.87;30.61;101391.25;4146344;28;20310;-66
2023/05/28 03:24:58;;;;;;;;;;;;;;;27.87;30.57;101393.13;4146626;28;19925;-66
2023/05/28 03:27:00;;;;;;;;;;;;;;;27.88;30.55;101392.13;4145411;28;19933;-66
2023/05/28 03:29:02;;;;;;;;;;;;;;;27.88;30.95;101400.22;4145437;28;19926;-66
2023/05/28 03:31:03;;;;;;;;;;;;;;;27.87;30.66;101395.81;4146176;28;19929;-66
2023/05/28 03:33:05;;;;;;;;;;;;;;;27.80;30.79;101378.50;4146404;28;20178;-66
2023/05/28 03:35:07;;;;;;;;;;;;;;;27.86;30.52;101386.88;4160834;28;19926;-66
2023/05/28 03:37:09;;;;;;;;;;;;;;;27.86;30.48;101388.72;4161459;28;20354;-66
2023/05/28 03:39:11;;;;;;;;;;;;;;;27.86;30.49;101386.88;4150191;28;19960;-66
2023/05/28 03:41:12;;;;;;;;;;;;;;;27.86;30.47;101389.56;4146166;28;20626;-66
2023/05/28 03:43:14;;;;;;;;;;;;;;;27.87;30.85;101388.53;4146219;28;19933;-65
2023/05/28 03:45:16;;;;;;;;;;;;;;;27.88;30.47;101384.84;4146254;28;20323;-66
2023/05/28 03:47:18;;;;;;;;;;;;;;;27.88;30.57;101382.16;4145313;28;19925;-67
2023/05/28 03:49:19;;;;;;;;;;;;;;;27.90;30.79;101382.00;4146385;28;20008;-66
2023/05/28 03:51:23;;;;;;;;;;;;;;;27.89;30.50;101391.97;4145926;28;19999;-65
2023/05/28 03:53:26;;;;;;;;;;;;;;;27.88;30.75;101384.00;4146201;28;19925;-65
2023/05/28 03:55:27;;;;;;;;;;;;;;;27.88;30.44;101390.25;4146178;28;20044;-66
2023/05/28 03:57:29;;;;;;;;;;;;;;;27.88;30.54;101395.66;4145212;28;20004;-68
2023/05/28 03:59:30;;;;;;;;;;;;;;;27.88;30.64;101392.97;4146256;28;19932;-68
2023/05/28 04:01:34;;;;;;;;;;;;;;;27.88;30.78;101394.81;4146034;28;19926;-68
2023/05/28 04:03:35;;;;;;;;;;;;;;;27.87;30.40;101393.97;4146031;28;19929;-68
2023/05/28 04:05:37;;;;;;;;;;;;;;;27.87;30.66;101404.78;4145729;28;20358;-68
2023/05/28 04:07:39;;;;;;;;;;;;;;;27.86;30.69;101408.50;4144754;28;19926;-65
2023/05/28 04:09:40;;;;;;;;;;;;;;;27.87;30.86;101403.94;4146116;28;19948;-67
2023/05/28 04:11:42;;;;;;;;;;;;;;;27.87;30.44;101398.53;4145828;28;19995;-68
2023/05/28 04:13:44;;;;;;;;;;;;;;;27.88;30.50;101401.06;4144825;28;19936;-65
2023/05/28 04:15:46;;;;;;;;;;;;;;;27.88;30.68;101401.06;4145606;28;19930;-66
2023/05/28 04:17:47;;;;;;;;;;;;;;;27.88;30.51;101405.63;4144673;28;19957;-65
2023/05/28 04:19:51;;;;;;;;;;;;;;;27.88;30.62;101406.47;4145549;28;19932;-68
2023/05/28 04:21:52;;;;;;;;;;;;;;;27.88;30.49;101414.59;4145902;28;19971;-65
2023/05/28 04:23:54;;;;;;;;;;;;;;;27.87;30.61;101399.38;4145697;28;20398;-68
2023/05/28 04:25:56;;;;;;;;;;;;;;;27.87;30.26;101402.06;4144323;28;20047;-67
2023/05/28 04:28:00;;;;;;;;;;;;;;;27.87;30.55;101406.63;4144561;28;19933;-68
2023/05/28 04:30:02;;;;;;;;;;;;;;;27.86;30.52;101408.50;4145713;28;19932;-68
2023/05/28 04:32:04;;;;;;;;;;;;;;;27.85;30.77;101406.78;4145477;28;19925;-66
2023/05/28 04:34:07;;;;;;;;;;;;;;;27.84;30.52;101410.50;4151491;28;19929;-65
2023/05/28 04:36:09;;;;;;;;;;;;;;;27.83;30.62;101408.78;4162035;28;19925;-65
2023/05/28 04:38:11;;;;;;;;;;;;;;;27.83;30.69;101410.66;4156653;28;19926;-67
2023/05/28 04:40:13;;;;;;;;;;;;;;;27.83;30.59;101411.50;4145665;28;20435;-66
2023/05/28 04:42:16;;;;;;;;;;;;;;;27.83;30.39;101406.09;4145768;28;19925;-67
2023/05/28 04:44:18;;;;;;;;;;;;;;;27.85;30.58;101412.19;4144979;28;19929;-67
2023/05/28 04:46:25;;;;;;;;;;;;;;;27.85;30.24;101419.44;4145504;28;20015;-67
2023/05/28 04:48:27;;;;;;;;;;;;;;;27.85;30.59;101416.75;4144187;28;19925;-67
2023/05/28 04:50:28;;;;;;;;;;;;;;;27.85;30.69;101422.16;4145418;28;19929;-66
2023/05/28 04:52:32;;;;;;;;;;;;;;;27.85;30.18;101424.84;4145441;28;19967;-67
2023/05/28 04:54:34;;;;;;;;;;;;;;;27.86;30.33;101426.56;4145413;28;19974;-66
2023/05/28 04:56:36;;;;;;;;;;;;;;;27.85;30.54;101423.00;4145086;28;20017;-66
2023/05/28 04:58:37;;;;;;;;;;;;;;;27.85;30.51;101416.75;4144703;28;19925;-66
2023/05/28 05:00:39;;;;;;;;;;;;;;;27.84;30.69;101423.13;4145228;28;19926;-66
2023/05/28 05:02:43;;;;;;;;;;;;;;;27.83;30.30;101419.59;4145222;28;19970;-66
2023/05/28 05:04:45;;;;;;;;;;;;;;;27.83;30.58;101421.47;4145284;28;19957;-66
2023/05/28 05:06:46;;;;;;;;;;;;;;;27.81;30.13;101421.59;4144638;28;19936;-66
2023/05/28 05:08:48;;;;;;;;;;;;;;;27.81;30.64;101426.16;4145002;28;20391;-65
2023/05/28 05:10:51;;;;;;;;;;;;;;;27.82;30.51;101427.88;4144176;28;19940;-66
2023/05/28 05:12:52;;;;;;;;;;;;;;;27.83;30.18;101425.00;4145331;28;20037;-66
2023/05/28 05:14:54;;;;;;;;;;;;;;;27.83;30.29;101433.13;4145393;28;19926;-66
2023/05/28 05:16:55;;;;;;;;;;;;;;;27.84;30.27;101436.66;4143955;28;19929;-66
2023/05/28 05:18:57;;;;;;;;;;;;;;;27.84;30.23;101431.25;4144931;28;20032;-66
2023/05/28 05:20:59;;;;;;;;;;;;;;;27.84;30.41;101428.53;4145091;28;19925;-65
2023/05/28 05:23:00;;;;;;;;;;;;;;;27.83;30.27;101429.56;4144051;28;19984;-66
2023/05/28 05:25:02;;;;;;;;;;;;;;;27.83;30.29;101430.41;4145349;28;19926;-66
2023/05/28 05:27:04;;;;;;;;;;;;;;;27.83;30.40;101426.88;4145075;28;19925;-65
2023/05/28 05:29:05;;;;;;;;;;;;;;;27.81;30.18;101427.00;4147571;28;19936;-66
2023/05/28 05:31:07;;;;;;;;;;;;;;;27.81;30.14;101427.00;4148032;28;19965;-66
2023/05/28 05:33:08;;;;;;;;;;;;;;;27.79;30.21;101429.03;4147529;28;19925;-67
2023/05/28 05:35:10;;;;;;;;;;;;;;;27.80;30.02;101429.88;4163116;28;19925;-67
2023/05/28 05:37:11;;;;;;;;;;;;;;;27.78;30.11;101427.31;4163532;28;19925;-66
2023/05/28 05:39:14;;;;;;;;;;;;;;;27.79;30.27;101436.28;4151213;28;20383;-66
2023/05/28 05:41:16;;;;;;;;;;;;;;;27.81;30.06;101434.28;4147981;28;19932;-66
2023/05/28 05:43:17;;;;;;;;;;;;;;;27.81;30.03;101428.88;4147930;28;19929;-66
2023/05/28 05:45:19;;;;;;;;;;;;;;;27.81;30.46;101431.56;4147865;28;20020;-66
2023/05/28 05:47:21;;;;;;;;;;;;;;;27.82;30.33;101434.13;4146703;28;19925;-66
2023/05/28 05:49:22;;;;;;;;;;;;;;;27.81;30.11;101435.09;4147771;28;20398;-66
2023/05/28 05:51:24;;;;;;;;;;;;;;;27.81;30.00;101437.81;4147904;28;20038;-66
2023/05/28 05:53:25;;;;;;;;;;;;;;;27.82;30.00;101438.69;4147569;28;19925;-66
2023/05/28 05:55:28;;;;;;;;;;;;;;;27.81;30.05;101439.69;4147656;28;19930;-66
2023/05/28 05:57:32;;;;;;;;;;;;;;;27.81;30.23;101436.97;4146768;28;20481;-66
2023/05/28 05:59:33;;;;;;;;;;;;;;;27.81;29.95;101434.28;4147649;28;19937;-66
2023/05/28 06:01:35;;;;;;;;;;;;;;;27.80;30.02;101433.41;4147142;28;19933;-66
2023/05/28 06:03:37;;;;;;;;;;;;;;;27.79;30.41;101433.56;4147262;28;19933;-66
2023/05/28 06:05:38;;;;;;;;;;;;;;;27.78;30.08;101435.44;4147549;28;19965;-66
2023/05/28 06:07:40;;;;;;;;;;;;;;;27.79;30.27;101431.72;4146470;28;19975;-66
2023/05/28 06:09:42;;;;;;;;;;;;;;;27.80;30.02;101428.00;4147686;28;19970;-65
2023/05/28 06:11:43;;;;;;;;;;;;;;;27.81;30.35;101426.16;4147553;28;20516;-66
2023/05/28 06:13:45;;;;;;;;;;;;;;;27.84;30.12;101431.25;4147415;28;19982;-65
2023/05/28 06:15:46;;;;;;;;;;;;;;;27.83;30.08;101426.88;4147223;28;19933;-66
2023/05/28 06:17:48;;;;;;;;;;;;;;;27.83;30.35;101429.56;4146690;28;19986;-66
2023/05/28 06:19:49;;;;;;;;;;;;;;;27.84;30.16;101425.84;4147308;28;19929;-66
2023/05/28 06:21:51;;;;;;;;;;;;;;;27.83;29.99;101425.00;4147092;28;19932;-66
2023/05/28 06:23:53;;;;;;;;;;;;;;;27.83;30.42;101432.28;4147316;28;19930;-65
2023/05/28 06:25:54;;;;;;;;;;;;;;;27.83;30.00;101426.88;4147261;28;19932;-66
2023/05/28 06:27:56;;;;;;;;;;;;;;;27.83;30.21;101432.28;4145901;28;20009;-66
2023/05/28 06:29:58;;;;;;;;;;;;;;;27.83;29.89;101430.41;4146820;28;19930;-66
2023/05/28 06:32:00;;;;;;;;;;;;;;;27.83;30.29;101427.72;4147015;28;19932;-66
2023/05/28 06:34:02;;;;;;;;;;;;;;;27.83;30.05;101430.41;4176985;28;19955;-65
2023/05/28 06:36:04;;;;;;;;;;;;;;;27.84;30.34;101432.13;4232817;28;19923;-65
2023/05/28 06:38:06;;;;;;;;;;;;;;;27.85;30.29;101427.56;4231783;28;19963;-65
2023/05/28 06:40:10;;;;;;;;;;;;;;;27.85;30.17;101427.56;4232823;28;20469;-65
2023/05/28 06:42:12;;;;;;;;;;;;;;;27.86;29.96;101423.84;4232681;28;19965;-65
2023/05/28 06:44:13;;;;;;;;;;;;;;;27.86;30.25;101429.25;4232325;28;19991;-65
2023/05/28 06:46:15;;;;;;;;;;;;;;;27.86;30.04;101424.72;4232836;27;19923;-65
2023/05/28 06:48:17;;;;;;;;;;;;;;;27.87;30.15;101431.81;4231529;28;19931;-66
2023/05/28 06:50:18;;;;;;;;;;;;;;;27.88;30.23;101428.09;4232579;28;20304;-66
2023/05/28 06:52:20;;;;;;;;;;;;;;;27.88;30.06;101433.50;4232608;28;19924;-66
2023/05/28 06:54:22;;;;;;;;;;;;;;;27.88;30.15;101436.22;4232762;28;19939;-66
2023/05/28 06:56:23;;;;;;;;;;;;;;;27.88;30.08;101427.25;4232599;28;19932;-66
2023/05/28 06:58:25;;;;;;;;;;;;;;;27.89;30.23;101428.97;4229829;28;20002;-65
2023/05/28 07:00:26;;;;;;;;;;;;;;;27.88;30.15;101429.97;4232425;28;20492;-66
2023/05/28 07:02:28;;;;;;;;;;;;;;;27.87;30.15;101429.09;4232366;28;19928;-66
2023/05/28 07:04:30;;;;;;;;;;;;;;;27.89;30.29;101432.50;4232122;28;19924;-66
2023/05/28 07:06:32;;;;;;;;;;;;;;;27.89;30.28;101435.22;4232384;28;19928;-66
2023/05/28 07:08:33;;;;;;;;;;;;;;;27.91;30.15;101432.34;4231234;28;19924;-66
2023/05/28 07:10:35;;;;;;;;;;;;;;;27.90;30.31;101434.22;4232451;28;20387;-66
2023/05/28 07:12:37;;;;;;;;;;;;;;;27.92;30.02;101438.63;4214153;28;19962;-66
2023/05/28 07:14:39;;;;;;;;;;;;;;;27.93;30.26;101433.06;4231921;28;19928;-66
2023/05/28 07:16:40;;;;;;;;;;;;;;;27.93;30.24;101437.63;4232302;27;19930;-66
2023/05/28 07:18:42;;;;;;;;;;;;;;;27.94;29.90;101442.88;4230951;28;20010;-66
2023/05/28 07:20:44;;;;;;;;;;;;;;;27.96;30.07;101434.59;4232050;28;19978;-66
2023/05/28 07:22:45;;;;;;;;;;;;;;;27.95;30.01;101428.38;4232126;28;20001;-66
2023/05/28 07:24:47;;;;;;;;;;;;;;;27.96;30.13;101438.19;4232061;28;19945;-66
2023/05/28 07:26:49;;;;;;;;;;;;;;;27.98;30.15;101432.63;4181146;28;20314;-66
2023/05/28 07:28:51;;;;;;;;;;;;;;;27.98;30.13;101435.31;4144853;28;19969;-66
2023/05/28 07:30:53;;;;;;;;;;;;;;;27.99;30.26;101431.63;4146538;28;20298;-66
2023/05/28 07:32:54;;;;;;;;;;;;;;;27.99;30.00;101428.91;4146662;28;20410;-66
2023/05/28 07:34:56;;;;;;;;;;;;;;;27.99;29.87;101435.16;4159452;28;19925;-66
2023/05/28 07:36:57;;;;;;;;;;;;;;;28.00;29.96;101428.75;4162620;28;19953;-66
2023/05/28 07:39:01;;;;;;;;;;;;;;;28.00;30.08;101428.75;4150591;28;19933;-67
2023/05/28 07:41:02;;;;;;;;;;;;;;;28.02;30.05;101426.75;4146538;28;19926;-66
2023/05/28 07:43:04;;;;;;;;;;;;;;;28.02;29.95;101429.47;4146023;28;19925;-67
2023/05/28 07:45:06;;;;;;;;;;;;;;;28.03;30.38;101433.00;4146159;28;20367;-66
2023/05/28 07:47:07;;;;;;;;;;;;;;;28.04;30.00;101415.78;4146293;28;19932;-66
2023/05/28 07:49:09;;;;;;;;;;;;;;;28.06;30.00;101421.94;4145188;28;20016;-66
2023/05/28 07:51:11;;;;;;;;;;;;;;;27.98;30.08;101417.22;4145767;28;19925;-66
2023/05/28 07:53:12;;;;;;;;;;;;;;;28.07;29.86;101437.16;4146182;28;19925;-66
2023/05/28 07:55:14;;;;;;;;;;;;;;;28.08;30.00;101428.00;4145923;28;19932;-66
2023/05/28 07:57:15;;;;;;;;;;;;;;;28.08;30.05;101427.16;4145273;28;19961;-66
2023/05/28 07:59:18;;;;;;;;;;;;;;;28.08;30.31;101428.00;4144525;28;19925;-66
2023/05/28 08:01:20;;;;;;;;;;;;;;;28.08;30.06;101421.75;4146160;28;20006;-66
2023/05/28 08:03:23;;;;;;;;;;;;;;;28.09;30.00;101421.59;4146085;28;20310;-66
2023/05/28 08:05:25;;;;;;;;;;;;;;;28.09;30.16;101418.91;4146000;28;20382;-66
2023/05/28 08:07:28;;;;;;;;;;;;;;;28.10;30.03;101419.75;4143928;28;19965;-66
2023/05/28 08:09:29;;;;;;;;;;;;;;;28.11;30.25;101421.47;4145762;28;19929;-66
2023/05/28 08:11:31;;;;;;;;;;;;;;;28.12;30.04;101418.59;4145524;28;20344;-66
2023/05/28 08:13:32;;;;;;;;;;;;;;;28.12;30.02;101418.59;4145851;28;19956;-66
2023/05/28 08:15:35;;;;;;;;;;;;;;;28.13;30.09;101411.31;4145637;28;19926;-66
2023/05/28 08:17:37;;;;;;;;;;;;;;;28.13;30.27;101412.19;4145029;28;20028;-66
2023/05/28 08:19:39;;;;;;;;;;;;;;;28.13;30.27;101412.19;4145675;28;19980;-66
2023/05/28 08:21:41;;;;;;;;;;;;;;;28.15;29.97;101412.03;4146000;28;19944;-66
2023/05/28 08:23:42;;;;;;;;;;;;;;;28.15;29.90;101412.88;4145691;28;20386;-66
2023/05/28 08:25:44;;;;;;;;;;;;;;;28.16;30.17;101411.03;4145464;28;19961;-66
2023/05/28 08:27:46;;;;;;;;;;;;;;;28.16;30.00;101413.75;4144593;28;19929;-67
2023/05/28 08:29:48;;;;;;;;;;;;;;;28.16;29.92;101405.63;4145547;28;19933;-66
2023/05/28 08:31:49;;;;;;;;;;;;;;;28.16;29.92;101409.16;4145999;28;20020;-66
2023/05/28 08:33:51;;;;;;;;;;;;;;;28.16;30.07;101406.47;4149840;28;20008;-66
2023/05/28 08:35:52;;;;;;;;;;;;;;;28.17;30.09;101407.34;4162061;28;19931;-66
2023/05/28 08:37:55;;;;;;;;;;;;;;;28.17;30.07;101401.94;4158948;28;19925;-66
2023/05/28 08:39:57;;;;;;;;;;;;;;;28.17;29.96;101405.47;4145145;28;19929;-66
2023/05/28 08:41:58;;;;;;;;;;;;;;;28.19;30.17;101402.59;4145676;28;20012;-66
2023/05/28 08:44:00;;;;;;;;;;;;;;;28.19;30.13;101394.47;4145384;28;20432;-66
2023/05/28 08:46:02;;;;;;;;;;;;;;;28.19;29.94;101391.78;4145882;28;20333;-66
2023/05/28 08:48:07;;;;;;;;;;;;;;;28.20;29.89;101390.78;4144586;28;19956;-67
2023/05/28 08:50:14;;;;;;;;;;;;;;;28.21;29.79;101393.31;4145465;28;20314;-66
2023/05/28 08:52:17;;;;;;;;;;;;;;;28.20;29.93;101394.34;4145732;28;19936;-67
2023/05/28 08:54:20;;;;;;;;;;;;;;;28.20;30.00;101386.25;4145771;28;20318;-67
2023/05/28 08:56:21;;;;;;;;;;;;;;;28.21;30.24;101387.06;4145074;28;19929;-67
2023/05/28 08:58:23;;;;;;;;;;;;;;;28.21;30.17;101390.63;4144352;28;19968;-67
2023/05/28 09:00:25;;;;;;;;;;;;;;;28.21;29.99;101378.97;4145583;28;19925;-67
2023/05/28 09:02:27;;;;;;;;;;;;;;;28.20;30.07;101383.53;4144283;28;19931;-67
2023/05/28 09:04:28;;;;;;;;;;;;;;;28.21;30.00;101387.91;4145109;28;20371;-67
2023/05/28 09:06:31;;;;;;;;;;;;;;;28.21;30.03;101385.22;4145502;28;19963;-67
2023/05/28 09:08:32;;;;;;;;;;;;;;;28.23;29.91;101384.22;4144206;28;20394;-67
2023/05/28 09:10:34;;;;;;;;;;;;;;;28.23;30.13;101378.81;4144868;28;19932;-66
2023/05/28 09:12:37;;;;;;;;;;;;;;;28.24;29.79;101384.06;4144009;28;20319;-66
2023/05/28 09:14:40;;;;;;;;;;;;;;;28.24;30.01;101375.09;4145244;28;19925;-67
2023/05/28 09:16:42;;;;;;;;;;;;;;;28.26;29.87;101373.09;4145207;28;20394;-67
2023/05/28 09:18:44;;;;;;;;;;;;;;;28.26;29.90;101371.22;4144210;28;19930;-67
2023/05/28 09:20:47;;;;;;;;;;;;;;;28.26;30.25;101379.34;4144939;28;20032;-67
2023/05/28 09:22:59;;;;;;;;;;;;;;;28.27;29.96;101372.09;4145112;28;20012;-66
2023/05/28 09:25:01;;;;;;;;;;;;;;;28.27;30.04;101372.94;4145018;28;20091;-67
2023/05/28 09:27:02;;;;;;;;;;;;;;;28.28;30.31;101382.75;4144938;28;19933;-67
2023/05/28 09:29:10;;;;;;;;;;;;;;;28.28;29.97;101379.22;4143791;28;19926;-67
2023/05/28 09:31:12;;;;;;;;;;;;;;;28.29;30.22;101383.59;4145150;28;19926;-67
2023/05/28 09:33:17;;;;;;;;;;;;;;;28.29;30.15;101378.19;4144831;28;19971;-67
2023/05/28 09:35:19;;;;;;;;;;;;;;;28.29;30.05;101372.75;4129053;28;19981;-67
2023/05/28 09:37:20;;;;;;;;;;;;;;;28.30;30.20;101369.94;4128701;28;19983;-67
2023/05/28 09:39:24;;;;;;;;;;;;;;;28.31;30.20;101376.19;4214227;28;19931;-67
2023/05/28 09:41:27;;;;;;;;;;;;;;;28.32;30.00;101370.59;4229058;28;19924;-66
2023/05/28 09:43:29;;;;;;;;;;;;;;;28.32;30.29;101367.91;4230255;28;19930;-66
2023/05/28 09:45:30;;;;;;;;;;;;;;;28.33;30.06;101366.91;4230391;28;20341;-67
2023/05/28 09:47:32;;;;;;;;;;;;;;;28.34;30.13;101365.91;4230317;28;20407;-67
2023/05/28 09:49:34;;;;;;;;;;;;;;;28.35;30.23;101366.75;4229276;28;19924;-67
2023/05/28 09:51:36;;;;;;;;;;;;;;;28.35;29.96;101364.88;4230518;28;20023;-67
2023/05/28 09:53:42;;;;;;;;;;;;;;;28.36;30.03;101360.31;4230010;28;19924;-67
2023/05/28 09:55:44;;;;;;;;;;;;;;;28.37;30.01;101353.91;4230052;28;19935;-67
2023/05/28 09:57:46;;;;;;;;;;;;;;;28.36;30.16;101357.63;4229569;28;20380;-67
2023/05/28 09:59:49;;;;;;;;;;;;;;;28.36;30.35;101361.19;4230070;28;20026;-67
2023/05/28 10:01:55;;;;;;;;;;;;;;;28.36;30.17;101354.91;4230010;28;19925;-67
2023/05/28 10:04:17;;;;;;;;;;;;;;;28.36;30.31;101361.19;4230202;28;20397;-66
2023/05/28 10:06:22;;;;;;;;;;;;;;;28.36;30.29;101355.78;4230214;28;19925;-67
2023/05/28 10:08:24;;;;;;;;;;;;;;;28.37;30.10;101357.47;4228687;28;19931;-67
2023/05/28 10:10:27;;;;;;;;;;;;;;;28.37;30.05;101343.94;4230020;28;19924;-67
2023/05/28 10:12:30;;;;;;;;;;;;;;;28.40;30.16;101345.50;4230118;28;19924;-67
2023/05/28 10:14:32;;;;;;;;;;;;;;;28.40;30.18;101347.31;4233219;28;19930;-67
2023/05/28 10:16:34;;;;;;;;;;;;;;;28.41;30.17;101349.03;4233312;28;19962;-67
2023/05/28 10:18:36;;;;;;;;;;;;;;;28.41;29.90;101349.03;4232071;28;19974;-67
2023/05/28 10:20:41;;;;;;;;;;;;;;;28.41;29.92;101352.59;4233277;27;19973;-67
2023/05/28 10:22:43;;;;;;;;;;;;;;;28.40;29.67;101342.78;4232658;28;19928;-67
2023/05/28 10:24:45;;;;;;;;;;;;;;;28.42;30.09;101348.03;4232791;28;19924;-66
2023/05/28 10:26:46;;;;;;;;;;;;;;;28.40;30.01;101350.91;4182807;27;20267;-66